Time;durP1;ratioP1;P1;durP2;ratioP2;P2;SDS_P1;SDS_P2;PMS_P1;PMS_P2;Temp;Humidity;BMP_temperature;BMP_pressure;BME280_temperature;BME280_humidity;BME280_pressure;Samples;Min_cycle;Max_cycle;Signal;HPM_P1;HPM_P2
2022/06/06 00:01:10;;;;;;;19.05;12.35;;;;;;;23.02;45.31;101040.47;5037334;28;20064;-71
2022/06/06 00:03:37;;;;;;;16.88;12.60;;;;;;;23.00;45.23;101031.47;5044589;28;20066;-70
2022/06/06 00:06:10;;;;;;;18.02;11.32;;;;;;;23.02;45.70;101035.78;5023481;28;20083;-70
2022/06/06 00:08:38;;;;;;;17.60;11.13;;;;;;;22.98;45.50;101025.22;5043874;28;20797;-70
2022/06/06 00:11:08;;;;;;;16.73;11.35;;;;;;;22.98;45.91;101028.88;5042815;28;20144;-70
2022/06/06 00:13:42;;;;;;;15.80;11.13;;;;;;;22.99;46.01;101016.75;5046045;28;20505;-71
2022/06/06 00:16:09;;;;;;;17.23;11.57;;;;;;;22.98;45.54;101028.88;5041358;28;20116;-72
2022/06/06 00:18:37;;;;;;;15.93;10.63;;;;;;;22.98;45.70;101017.78;5027112;28;20049;-72
2022/06/06 00:21:06;;;;;;;15.60;10.73;;;;;;;22.99;45.87;101018.66;5046737;28;20172;-71
2022/06/06 00:23:33;;;;;;;17.70;11.25;;;;;;;22.98;45.91;101015.03;5030760;28;20057;-72
2022/06/06 00:26:00;;;;;;;16.40;11.07;;;;;;;22.97;46.07;101018.88;5025410;28;20080;-71
2022/06/06 00:28:27;;;;;;;15.02;10.13;;;;;;;22.97;45.79;101018.88;5021893;28;20071;-71
2022/06/06 00:30:57;;;;;;;16.52;10.32;;;;;;;23.00;45.85;101014.84;5026837;28;20080;-71
2022/06/06 00:36:10;;;;;;;14.95;9.77;;;;;;;22.98;45.80;101036.31;5026573;28;20410;-71
2022/06/06 00:38:37;;;;;;;12.98;9.27;;;;;;;22.98;45.53;101028.88;5023011;28;20472;-72
2022/06/06 00:41:03;;;;;;;14.18;9.68;;;;;;;22.99;45.69;101027.81;5022954;28;20081;-72
2022/06/06 00:43:30;;;;;;;14.38;9.88;;;;;;;22.99;45.62;101026.97;5025480;28;20081;-71
2022/06/06 00:45:57;;;;;;;15.00;10.18;;;;;;;23.00;45.62;101018.47;5019012;28;20046;-71
2022/06/06 00:48:38;;;;;;;14.80;10.05;;;;;;;23.01;45.67;101017.44;5023238;28;20056;-71
2022/06/06 00:51:11;;;;;;;14.40;10.02;;;;;;;23.01;46.11;101006.38;5021887;28;20136;-72
2022/06/06 00:53:46;;;;;;;15.30;10.18;;;;;;;23.02;46.11;101016.41;5025305;28;20506;-72
2022/06/06 00:56:48;;;;;;;16.10;10.10;;;;;;;23.03;45.76;101015.38;5023617;28;20123;-71
2022/06/06 00:59:29;;;;;;;15.50;10.60;;;;;;;23.01;45.36;101017.44;5006497;28;20056;-72
2022/06/06 01:01:57;;;;;;;15.63;10.13;;;;;;;22.98;45.82;101012.25;5020624;28;20484;-73
2022/06/06 01:04:26;;;;;;;19.00;11.18;;;;;;;22.99;45.57;101007.56;5024179;28;20053;-73
2022/06/06 01:06:53;;;;;;;16.85;10.13;;;;;;;22.96;45.77;101011.59;5025833;28;20132;-72
2022/06/06 01:09:23;;;;;;;13.52;9.77;;;;;;;22.98;45.79;101014.16;5029142;28;20072;-72
2022/06/06 01:11:55;;;;;;;16.58;11.15;;;;;;;22.95;45.83;101012.63;5026657;28;20073;-71
2022/06/06 01:14:25;;;;;;;15.52;11.05;;;;;;;22.92;45.53;101012.97;5029478;28;20072;-71
2022/06/06 01:17:15;;;;;;;16.98;11.05;;;;;;;22.95;45.95;101012.63;5029080;28;20477;-72
2022/06/06 01:20:08;;;;;;;14.80;10.45;;;;;;;22.91;45.65;101014.00;5027796;28;20509;-72
2022/06/06 01:22:59;;;;;;;14.85;9.98;;;;;;;22.89;45.80;101010.59;5026659;28;20758;-72
2022/06/06 01:25:59;;;;;;;15.60;10.02;;;;;;;22.89;45.94;101009.72;5026438;28;20421;-72
2022/06/06 01:28:52;;;;;;;15.40;10.27;;;;;;;22.87;46.75;101012.66;5030922;28;20502;-71
2022/06/06 01:31:25;;;;;;;;;;;;;;;22.60;46.88;101016.69;5028482;28;20054;-71
2022/06/06 01:34:01;;;;;;;12.82;8.80;;;;;;;22.86;46.37;101019.25;5029239;28;20309;-72
2022/06/06 01:36:30;;;;;;;14.95;9.35;;;;;;;22.89;46.23;101007.81;5023634;28;20084;-71
2022/06/06 01:39:00;;;;;;;13.55;9.45;;;;;;;22.90;46.16;101011.41;5026146;28;20124;-71
2022/06/06 01:41:38;;;;;;;14.45;9.48;;;;;;;22.92;45.83;101012.97;5021446;28;20129;-71
2022/06/06 01:44:50;;;;;;;17.95;10.45;;;;;;;22.86;46.72;101008.16;5027313;28;20516;-71
2022/06/06 01:47:26;;;;;;;14.73;9.57;;;;;;;22.89;46.42;101005.03;5026817;28;20096;-71
2022/06/06 01:49:55;;;;;;;14.90;9.90;;;;;;;22.89;45.91;101012.50;5026569;28;20124;-71
2022/06/06 01:52:22;;;;;;;13.65;9.18;;;;;;;22.89;46.05;101006.94;5027386;28;20494;-72
2022/06/06 01:54:53;;;;;;;14.38;10.02;;;;;;;22.92;46.53;100998.25;5015809;28;20132;-71
2022/06/06 01:57:22;;;;;;;14.75;9.30;;;;;;;22.89;46.10;100988.44;5015418;28;20145;-71
2022/06/06 01:59:51;;;;;;;13.35;9.35;;;;;;;22.91;45.90;100991.00;5029380;28;20132;-72
2022/06/06 02:02:18;;;;;;;14.80;9.50;;;;;;;22.90;46.16;100987.38;5026790;28;20084;-72
2022/06/06 02:04:45;;;;;;;14.32;9.77;;;;;;;22.90;46.44;100984.59;5029711;28;20449;-71
2022/06/06 02:07:12;;;;;;;14.20;8.88;;;;;;;22.91;46.30;100985.47;5026849;28;20049;-71
2022/06/06 02:09:38;;;;;;;15.05;8.57;;;;;;;22.91;46.28;100982.69;5015869;28;20137;-71
2022/06/06 02:12:05;;;;;;;13.30;8.75;;;;;;;22.92;46.22;100987.19;5027623;28;20136;-72
2022/06/06 02:14:32;;;;;;;12.27;8.45;;;;;;;22.90;45.96;100979.06;5028589;28;20077;-71
2022/06/06 02:16:58;;;;;;;11.68;7.80;;;;;;;22.89;45.72;100985.66;5027702;28;20049;-71
2022/06/06 02:19:26;;;;;;;12.20;7.68;;;;;;;22.90;45.86;100984.59;5028058;28;20079;-72
2022/06/06 02:21:52;;;;;;;10.57;7.28;;;;;;;22.88;45.94;100991.38;5027230;28;20087;-71
2022/06/06 02:24:19;;;;;;;10.75;7.03;;;;;;;22.88;45.69;100983.06;5027347;28;20132;-71
2022/06/06 02:26:46;;;;;;;10.90;6.93;;;;;;;22.86;46.00;100988.78;5025446;28;20124;-72
2022/06/06 02:29:12;;;;;;;9.68;7.00;;;;;;;22.85;45.75;100986.19;4999332;28;20075;-72
2022/06/06 02:31:39;;;;;;;10.75;6.97;;;;;;;22.85;45.69;100998.13;5027856;28;20132;-72
2022/06/06 02:34:07;;;;;;;9.25;6.05;;;;;;;22.86;45.80;100993.44;5028602;28;20141;-72
2022/06/06 02:36:35;;;;;;;9.20;6.32;;;;;;;22.85;45.44;100998.13;5026226;28;20049;-70
2022/06/06 02:47:06;;;;;;;7.80;5.38;;;;;;;22.72;45.61;101004.19;4974702;28;20049;-83
2022/06/06 02:54:31;;;;;;;7.45;4.55;;;;;;;22.69;45.36;101003.69;4849731;29;20078;-83
2022/06/06 02:56:58;;;;;;;7.63;4.53;;;;;;;22.67;45.49;101006.63;4849535;29;20422;-83
2022/06/06 02:59:28;;;;;;;7.88;4.28;;;;;;;22.68;45.14;100996.41;4839271;29;20081;-84
2022/06/06 03:01:54;;;;;;;6.47;4.30;;;;;;;22.63;45.20;100990.56;4861787;29;20077;-83
2022/06/06 03:04:21;;;;;;;7.25;4.25;;;;;;;22.66;45.05;101004.88;4858215;29;20421;-82
2022/06/06 03:06:54;;;;;;;7.60;4.60;;;;;;;22.66;44.78;101004.88;4838060;29;20120;-83
2022/06/06 03:09:49;;;;;;;6.32;4.10;;;;;;;22.67;45.32;101003.00;4841790;29;20096;-83
2022/06/06 03:12:16;;;;;;;6.30;4.20;;;;;;;22.61;45.42;100998.16;4829944;29;20121;-83
2022/06/06 03:14:57;;;;;;;6.40;4.38;;;;;;;22.63;45.62;100996.97;4866925;29;20064;-83
2022/06/06 03:21:13;;;;;;;7.35;3.97;;;;;;;22.56;45.10;100992.31;4893411;29;20053;-84
2022/06/06 03:24:13;;;;;;;5.25;3.40;;;;;;;22.58;45.27;100999.38;4901091;29;20154;-83
2022/06/06 03:26:45;;;;;;;5.75;3.55;;;;;;;22.55;45.08;100996.13;4904392;28;20112;-84
2022/06/06 03:29:18;;;;;;;;;;;;;;;22.29;45.79;100999.09;5001751;28;20042;-83
2022/06/06 03:32:25;;;;;;;5.82;3.28;;;;;;;22.50;45.18;100999.41;5020899;28;19929;-83
2022/06/06 03:35:13;;;;;;;5.53;3.05;;;;;;;22.52;44.97;101008.38;5014933;28;20060;-83
2022/06/06 03:38:05;;;;;;;5.65;3.00;;;;;;;22.53;44.97;101009.25;4998131;28;20053;-83
2022/06/06 03:40:53;;;;;;;4.63;2.80;;;;;;;22.48;44.56;101018.09;4994761;28;20351;-84
2022/06/06 03:43:44;;;;;;;4.80;3.33;;;;;;;22.47;44.53;101012.75;5027037;28;20049;-83
2022/06/06 03:46:36;;;;;;;6.63;3.55;;;;;;;22.47;45.24;101016.38;5028698;28;20047;-83
2022/06/06 03:49:13;;;;;;;6.10;3.75;;;;;;;22.45;44.88;101014.81;5007518;28;20053;-83
2022/06/06 03:52:01;;;;;;;5.40;3.60;;;;;;;22.46;44.65;101002.72;5025157;28;20038;-83
2022/06/06 03:54:44;;;;;;;6.63;4.15;;;;;;;22.48;44.46;101008.94;5020979;28;20112;-83
2022/06/06 03:57:19;;;;;;;6.50;4.00;;;;;;;22.43;44.86;101016.88;5004039;28;20081;-83
2022/06/06 03:59:55;;;;;;;6.30;3.85;;;;;;;22.45;44.40;101029.50;5027665;28;20034;-83
2022/06/06 04:02:33;;;;;;;7.60;3.88;;;;;;;22.41;44.55;101028.13;5008516;28;20077;-83
2022/06/06 04:05:29;;;;;;;6.38;3.70;;;;;;;22.37;44.84;101022.09;5010843;28;20413;-84
2022/06/06 04:07:57;;;;;;;5.82;4.00;;;;;;;22.38;44.47;101034.03;5013028;28;20073;-83
2022/06/06 04:10:33;;;;;;;6.70;4.22;;;;;;;22.40;44.63;101027.25;5022081;28;20126;-83
2022/06/06 04:13:31;;;;;;;5.63;3.72;;;;;;;22.39;44.58;101033.84;4970132;28;20066;-83
2022/06/06 04:16:38;;;;;;;5.97;3.63;;;;;;;22.31;44.84;101033.84;5013169;28;20099;-83
2022/06/06 04:19:44;;;;;;;6.03;3.80;;;;;;;22.33;44.28;101041.97;5003740;28;20101;-84
2022/06/06 04:22:22;;;;;;;6.95;4.53;;;;;;;22.34;44.47;101046.47;5002952;28;20050;-83
2022/06/06 04:25:29;;;;;;;6.35;3.70;;;;;;;22.34;44.16;101061.16;4997448;28;20120;-83
2022/06/06 04:28:12;;;;;;;6.85;4.03;;;;;;;22.35;44.50;101057.34;4967590;28;20691;-83
2022/06/06 04:30:42;;;;;;;6.15;4.00;;;;;;;22.31;44.34;101052.34;4994485;28;20072;-83
2022/06/06 04:33:25;;;;;;;6.53;4.15;;;;;;;22.34;44.11;101055.63;4970860;28;20050;-83
2022/06/06 04:36:18;;;;;;;6.70;4.13;;;;;;;22.29;44.36;101054.44;4992634;28;20070;-83
2022/06/06 04:38:56;;;;;;;6.80;3.97;;;;;;;22.32;44.33;101049.38;5003841;28;20050;-83
2022/06/06 04:41:27;;;;;;;5.82;3.72;;;;;;;22.28;44.39;101049.94;5009992;28;20058;-83
2022/06/06 04:44:05;;;;;;;6.63;4.28;;;;;;;22.35;44.26;101051.81;5002711;28;20045;-83
2022/06/06 04:46:45;;;;;;;5.70;3.85;;;;;;;22.33;44.27;101039.19;4996690;28;20053;-83
2022/06/06 04:49:28;;;;;;;6.25;4.00;;;;;;;22.31;44.87;101044.06;4962379;28;20050;-83
2022/06/06 04:52:05;;;;;;;6.78;4.00;;;;;;;22.30;44.41;101042.31;4998396;28;20306;-83
2022/06/06 04:54:35;;;;;;;6.90;4.60;;;;;;;22.33;44.74;101055.78;5005783;28;20150;-84
2022/06/06 04:57:17;;;;;;;7.15;4.05;;;;;;;22.32;44.50;101056.81;5012869;28;20090;-84
2022/06/06 04:59:46;;;;;;;6.97;4.45;;;;;;;22.35;44.58;101059.25;5000200;28;20046;-84
2022/06/06 05:02:14;;;;;;;7.82;4.40;;;;;;;22.35;44.48;101062.03;5007918;28;20117;-83
2022/06/06 05:04:41;;;;;;;7.85;4.57;;;;;;;22.34;44.41;101049.22;5014385;28;20073;-84
2022/06/06 05:07:44;;;;;;;7.68;4.68;;;;;;;22.37;43.96;101063.59;5007314;28;20081;-83
2022/06/06 05:10:16;;;;;;;6.95;4.32;;;;;;;22.34;44.57;101065.81;5014375;28;20081;-83
2022/06/06 05:12:58;;;;;;;7.35;4.25;;;;;;;22.35;44.07;101062.88;5005111;28;20057;-83
2022/06/06 05:15:45;;;;;;;6.93;4.40;;;;;;;22.35;43.91;101062.03;5011599;28;20058;-83
2022/06/06 05:18:35;;;;;;;6.28;4.10;;;;;;;22.39;44.07;101067.06;4972052;28;20112;-83
2022/06/06 05:21:56;;;;;;;6.75;4.28;;;;;;;22.38;43.53;101064.44;5009251;28;20065;-81
2022/06/06 05:24:49;;;;;;;5.65;3.75;;;;;;;22.35;43.32;101071.19;4967261;28;20045;-83
2022/06/06 05:27:54;;;;;;;6.00;3.72;;;;;;;22.38;43.53;101075.53;5006001;28;20050;-83
2022/06/06 05:30:46;;;;;;;;;;;;;;;;;;;;;
2022/06/06 05:33:25;;;;;;;7.00;4.20;;;;;;;22.35;43.17;101087.78;5004501;28;20046;-84
2022/06/06 05:36:16;;;;;;;7.22;4.50;;;;;;;22.33;42.92;101084.31;5001439;28;20422;-83
2022/06/06 05:39:04;;;;;;;5.68;3.70;;;;;;;22.32;43.28;101090.88;5001328;28;20107;-82
2022/06/06 05:41:59;;;;;;;6.18;3.63;;;;;;;22.34;42.89;101087.94;5006851;28;20112;-83
2022/06/06 05:44:59;;;;;;;5.80;3.53;;;;;;;22.28;43.07;101092.28;5010385;28;20142;-82
2022/06/06 05:47:49;;;;;;;6.60;3.70;;;;;;;22.36;42.90;101094.19;5006323;28;20085;-82
2022/06/06 05:50:36;;;;;;;5.57;3.63;;;;;;;22.36;43.46;101097.81;5004430;28;20057;-82
2022/06/06 05:53:18;;;;;;;6.38;3.75;;;;;;;22.47;42.97;101090.22;4999817;28;20046;-84
2022/06/06 05:56:26;;;;;;;6.40;3.80;;;;;;;22.55;43.39;101095.75;5008418;28;20081;-84
2022/06/06 05:58:59;;;;;;;5.63;3.38;;;;;;;22.66;43.54;101093.47;4960783;28;20034;-84
2022/06/06 06:02:25;;;;;;;6.47;3.90;;;;;;;22.75;43.77;101086.91;5022485;28;20060;-83
2022/06/06 06:05:28;;;;;;;6.05;3.42;;;;;;;22.93;43.56;101102.44;4961572;28;20142;-83
2022/06/06 06:08:04;;;;;;;4.90;3.20;;;;;;;23.08;43.03;101109.84;4944104;28;20054;-84
2022/06/06 06:11:24;;;;;;;4.90;3.20;;;;;;;23.19;42.51;101113.28;5008188;28;20061;-84
2022/06/06 06:14:47;;;;;;;5.50;2.83;;;;;;;23.26;42.45;101100.44;4932570;28;20099;-80
2022/06/06 06:17:18;;;;;;;4.95;2.95;;;;;;;23.34;42.22;101092.09;5016607;28;20055;-80
2022/06/06 06:19:49;;;;;;;4.50;2.80;;;;;;;23.42;41.94;101106.78;5016589;28;20110;-80
2022/06/06 06:22:20;;;;;;;4.40;2.85;;;;;;;23.43;42.58;101102.13;5007297;28;20083;-79
2022/06/06 06:24:50;;;;;;;4.45;2.80;;;;;;;23.49;42.33;101104.19;5002959;28;20125;-80
2022/06/06 06:27:18;;;;;;;4.20;2.55;;;;;;;23.52;41.97;101112.16;5003862;28;20058;-81
2022/06/06 06:29:45;;;;;;;4.32;2.80;;;;;;;23.56;41.72;101109.88;5000361;28;20102;-81
2022/06/06 06:32:34;;;;;;;3.88;2.33;;;;;;;23.62;41.36;101123.91;5016299;28;20046;-80
2022/06/06 06:35:24;;;;;;;3.38;2.40;;;;;;;23.61;41.49;101119.38;4996646;28;20563;-80
2022/06/06 06:38:12;;;;;;;3.92;2.20;;;;;;;23.65;41.37;101129.06;4998216;28;20057;-80
2022/06/06 06:41:02;;;;;;;3.88;2.42;;;;;;;23.66;42.04;101129.91;4977915;28;20097;-80
2022/06/06 06:43:51;;;;;;;4.50;2.53;;;;;;;23.75;41.27;101140.78;4998945;28;20065;-79
2022/06/06 06:46:26;;;;;;;4.38;2.60;;;;;;;23.77;42.08;101137.84;5013438;28;20054;-80
2022/06/06 06:49:06;;;;;;;4.30;2.40;;;;;;;23.85;41.07;101130.34;5018282;28;20113;-81
2022/06/06 06:51:36;;;;;;;3.83;2.40;;;;;;;23.92;40.97;101137.94;5013176;28;20132;-82
2022/06/06 06:54:33;;;;;;;4.28;2.55;;;;;;;23.97;40.25;101138.22;5015002;28;20475;-82
2022/06/06 06:57:31;;;;;;;3.75;2.10;;;;;;;24.02;40.46;101133.88;5014457;28;20473;-82
2022/06/06 07:00:37;;;;;;;3.70;1.90;;;;;;;24.09;40.48;101128.47;5009750;28;20042;-81
2022/06/06 07:10:21;;;;;;;3.28;1.92;;;;;;;24.49;39.58;101125.41;5008315;28;20042;-82
2022/06/06 07:13:01;;;;;;;4.43;2.15;;;;;;;24.55;40.70;101141.31;4998908;28;20445;-82
2022/06/06 07:15:43;;;;;;;3.70;2.00;;;;;;;24.68;40.50;101134.28;5012036;28;20564;-82
2022/06/06 07:18:16;;;;;;;3.25;1.85;;;;;;;24.77;40.37;101136.81;5014717;28;20141;-80
2022/06/06 07:20:46;;;;;;;3.03;1.90;;;;;;;24.90;39.36;101141.69;5014174;28;20043;-81
2022/06/06 07:23:15;;;;;;;4.35;1.73;;;;;;;24.99;39.66;101135.91;5012907;28;20500;-83
2022/06/06 07:25:50;;;;;;;2.45;1.50;;;;;;;25.11;37.86;101130.75;5013882;28;20500;-80
2022/06/06 07:28:22;;;;;;;2.80;1.63;;;;;;;25.19;38.01;101132.59;5013077;28;20191;-81
2022/06/06 07:31:10;;;;;;;2.40;1.40;;;;;;;25.24;38.43;101132.84;5009960;28;20472;-79
2022/06/06 07:33:55;;;;;;;2.67;1.30;;;;;;;25.32;37.29;101135.53;5003206;28;20132;-79
2022/06/06 07:36:59;;;;;;;3.35;1.48;;;;;;;25.35;37.05;101133.25;5032603;28;20113;-78
2022/06/06 07:39:45;;;;;;;3.88;1.38;;;;;;;25.39;36.90;101136.50;5013601;28;20042;-80
2022/06/06 07:42:33;;;;;;;3.67;1.40;;;;;;;25.42;36.83;101138.03;4979789;28;20053;-79
2022/06/06 07:45:15;;;;;;;2.35;1.20;;;;;;;25.43;35.64;101128.66;4993270;28;20050;-79
2022/06/06 07:47:51;;;;;;;2.53;1.38;;;;;;;25.41;36.71;101139.94;5007246;28;20132;-81
2022/06/06 07:50:25;;;;;;;2.13;1.00;;;;;;;25.38;36.20;101127.28;5008737;28;20108;-80
2022/06/06 07:53:10;;;;;;;1.67;0.98;;;;;;;25.38;36.02;101131.97;5007076;28;20132;-81
2022/06/06 07:55:51;;;;;;;3.30;1.50;;;;;;;25.35;35.03;101133.25;4999857;28;20054;-79
2022/06/06 07:59:06;;;;;;;2.13;1.23;;;;;;;25.27;35.66;101132.47;4995052;28;20073;-83
2022/06/06 08:02:03;;;;;;;1.75;1.00;;;;;;;25.30;35.31;101118.19;4993256;28;20489;-81
2022/06/06 08:04:48;;;;;;;2.15;1.30;;;;;;;25.27;35.23;101111.13;4992657;28;20109;-81
2022/06/06 08:07:34;;;;;;;3.38;1.20;;;;;;;25.29;35.06;101119.22;4988325;28;20124;-80
2022/06/06 08:10:17;;;;;;;3.47;1.15;;;;;;;25.34;35.00;101116.75;5017403;28;20049;-81
2022/06/06 08:13:35;;;;;;;2.10;1.10;;;;;;;25.34;34.67;101114.84;5005020;28;20069;-80
2022/06/06 08:16:23;;;;;;;2.38;1.02;;;;;;;25.38;34.39;101107.84;4994116;28;20069;-81
2022/06/06 08:19:17;;;;;;;1.75;0.98;;;;;;;25.40;35.03;101114.06;5022458;28;20052;-80
2022/06/06 08:21:47;;;;;;;1.88;1.10;;;;;;;25.45;35.46;101110.69;5027181;28;20140;-81
2022/06/06 08:24:32;;;;;;;3.75;1.10;;;;;;;25.50;34.61;101104.56;5013092;28;20468;-80
2022/06/06 08:27:14;;;;;;;2.58;0.98;;;;;;;25.55;35.57;101104.84;5007805;28;20152;-80
2022/06/06 08:29:43;;;;;;;2.60;1.15;;;;;;;25.63;35.39;101118.66;5029873;28;20048;-82
2022/06/06 08:32:11;;;;;;;1.67;1.02;;;;;;;25.66;34.86;101121.06;5013388;28;20054;-81
2022/06/06 08:34:38;;;;;;;1.60;1.10;;;;;;;25.72;34.77;101123.06;4991623;28;20060;-83
2022/06/06 08:37:18;;;;;;;1.90;1.05;;;;;;;25.81;34.12;101123.81;4994193;28;20133;-81
2022/06/06 08:40:06;;;;;;;1.85;1.20;;;;;;;25.85;33.68;101120.47;5064739;23;20052;-65
2022/06/06 08:42:52;;;;;;;2.42;1.00;;;;;;;25.90;33.50;101117.94;5007368;28;20132;-65
2022/06/06 08:45:36;;;;;;;1.67;0.85;;;;;;;25.94;33.28;101127.66;4997762;28;20046;-65
2022/06/06 08:48:33;;;;;;;1.52;0.80;;;;;;;25.98;32.68;101111.41;4996799;28;20151;-66
2022/06/06 08:51:10;;;;;;;1.90;0.90;;;;;;;25.96;33.32;101113.50;4999274;28;20228;-67
2022/06/06 08:53:55;;;;;;;1.58;0.88;;;;;;;25.94;33.09;101110.94;5007673;28;20124;-67
2022/06/06 08:56:47;;;;;;;1.50;1.00;;;;;;;25.95;32.71;101109.00;4993277;28;20112;-67
2022/06/06 08:59:40;;;;;;;2.70;1.13;;;;;;;25.90;32.70;101112.38;5007537;28;20122;-67
2022/06/06 09:02:41;;;;;;;2.28;1.00;;;;;;;25.83;33.01;101103.09;5001577;28;20860;-65
2022/06/06 09:05:10;;;;;;;2.28;0.90;;;;;;;25.81;33.39;101091.31;5001610;28;20092;-65
2022/06/06 09:07:46;;;;;;;3.55;1.10;;;;;;;25.86;32.66;101113.81;5008608;28;20502;-65
2022/06/06 09:11:03;;;;;;;1.45;0.90;;;;;;;25.83;32.80;101091.97;5021170;28;20054;-65
2022/06/06 09:13:30;;;;;;;1.90;0.90;;;;;;;25.80;32.93;101103.47;4990246;28;20051;-65
2022/06/06 09:16:23;;;;;;;1.25;0.70;;;;;;;25.87;32.18;101109.13;5000965;28;20076;-68
2022/06/06 09:19:21;;;;;;;1.70;0.85;;;;;;;25.85;32.92;101101.00;4998231;28;20056;-67
2022/06/06 09:22:08;;;;;;;1.90;1.00;;;;;;;25.87;32.51;101109.13;5003501;28;20046;-68
2022/06/06 09:25:11;;;;;;;2.20;0.85;;;;;;;25.90;32.52;101105.97;5004997;28;20077;-68
2022/06/06 09:28:02;;;;;;;1.42;0.63;;;;;;;25.97;32.35;101118.03;4999220;28;20129;-66
2022/06/06 09:31:06;;;;;;;1.83;0.80;;;;;;;26.02;32.12;101105.25;5007937;28;20060;-65
2022/06/06 09:34:15;;;;;;;1.10;0.70;;;;;;;26.01;31.78;101120.22;5007413;28;20060;-66
2022/06/06 09:36:46;;;;;;;2.10;0.90;;;;;;;26.05;31.48;101124.31;5010537;28;20096;-66
2022/06/06 09:39:43;;;;;;;1.88;0.90;;;;;;;26.04;31.51;101118.94;5005610;28;20054;-65
2022/06/06 09:42:37;;;;;;;0.80;0.60;;;;;;;26.01;31.45;101111.88;5004747;28;20546;-65
2022/06/06 09:45:31;;;;;;;2.35;0.75;;;;;;;26.01;31.62;101120.22;5000872;28;20396;-67
2022/06/06 09:48:12;;;;;;;1.92;0.90;;;;;;;26.04;31.71;101107.81;5006004;28;20077;-68
2022/06/06 09:50:39;;;;;;;1.75;0.95;;;;;;;26.00;32.05;101118.50;5000659;28;20523;-67
2022/06/06 09:53:27;;;;;;;3.50;0.85;;;;;;;26.01;31.64;101113.81;5000750;28;20130;-67
2022/06/06 09:59:32;;;;;;;1.83;0.90;;;;;;;26.00;31.54;101100.94;5004689;28;20084;-65
2022/06/06 10:02:32;;;;;;;1.48;0.90;;;;;;;26.02;32.01;101105.25;4994491;28;20480;-67
2022/06/06 10:05:20;;;;;;;1.58;0.82;;;;;;;26.07;32.08;101093.53;4999698;28;20105;-65
2022/06/06 10:08:25;;;;;;;1.65;0.80;;;;;;;26.09;32.04;101078.38;5006183;28;20540;-66
2022/06/06 10:11:12;;;;;;;1.10;0.73;;;;;;;26.18;31.43;101095.78;5002051;28;20069;-66
2022/06/06 10:14:11;;;;;;;1.88;0.82;;;;;;;26.22;31.62;101082.31;4998095;28;20050;-66
2022/06/06 10:17:01;;;;;;;1.42;0.70;;;;;;;26.22;31.35;101085.97;5006768;28;20058;-65
2022/06/06 10:19:37;;;;;;;0.98;0.50;;;;;;;26.27;31.31;101080.72;5009760;28;20077;-65
2022/06/06 10:22:36;;;;;;;2.10;0.60;;;;;;;26.25;31.44;101076.38;4999398;28;20085;-65
2022/06/06 10:25:11;;;;;;;1.70;0.80;;;;;;;26.31;31.18;101075.59;5007575;28;20132;-65
2022/06/06 10:28:05;;;;;;;2.25;0.98;;;;;;;26.31;31.53;101072.81;5006656;28;20046;-66
2022/06/06 10:30:53;;;;;;;1.33;0.70;;;;;;;26.31;31.10;101075.59;5001280;28;20042;-67
2022/06/06 10:33:43;;;;;;;1.55;0.60;;;;;;;26.29;31.12;101074.94;5001487;28;20090;-66
2022/06/06 10:36:30;;;;;;;0.98;0.60;;;;;;;26.26;30.82;101059.50;4999193;28;20057;-66
2022/06/06 10:39:24;;;;;;;2.15;0.70;;;;;;;26.25;30.88;101071.66;4999376;28;20042;-66
2022/06/06 10:42:17;;;;;;;1.73;0.68;;;;;;;26.29;30.57;101066.56;4996935;28;20074;-66
2022/06/06 10:45:37;;;;;;;1.20;0.50;;;;;;;26.25;30.89;101062.44;4994996;28;20038;-68
2022/06/06 10:48:07;;;;;;;1.05;0.55;;;;;;;26.28;30.83;101064.84;4979887;28;20156;-65
2022/06/06 10:50:36;;;;;;;1.85;0.60;;;;;;;26.32;30.36;101064.28;5000144;28;20142;-63
2022/06/06 10:53:38;;;;;;;2.47;0.60;;;;;;;26.29;30.92;101066.56;4998333;28;20133;-63
2022/06/06 10:56:20;;;;;;;1.08;0.68;;;;;;;26.36;30.46;101070.28;5004681;28;20053;-64
2022/06/06 10:59:15;;;;;;;0.98;0.60;;;;;;;26.40;30.57;101060.47;4999122;28;20048;-64
2022/06/06 11:02:07;;;;;;;0.80;0.45;;;;;;;26.42;30.02;101062.00;5006343;28;20149;-64
2022/06/06 11:04:36;;;;;;;1.35;0.75;;;;;;;26.42;30.60;101062.00;4992592;28;20111;-64
2022/06/06 11:07:25;;;;;;;1.20;0.60;;;;;;;26.48;30.37;101049.19;5004379;28;20483;-66
2022/06/06 11:09:58;;;;;;;1.27;0.73;;;;;;;26.51;30.56;101051.59;4998799;28;20084;-64
2022/06/06 11:13:27;;;;;;;1.10;0.63;;;;;;;26.43;30.89;101052.59;5002447;28;20042;-64
2022/06/06 11:16:18;;;;;;;2.55;0.70;;;;;;;26.49;30.42;101060.13;4941714;29;20143;-64
2022/06/06 11:19:22;;;;;;;2.05;1.05;;;;;;;26.49;30.46;101054.56;4993876;28;20462;-64
2022/06/06 11:22:08;;;;;;;1.10;0.70;;;;;;;26.47;30.37;101078.09;5000995;28;20073;-66
2022/06/06 11:25:00;;;;;;;1.13;0.63;;;;;;;26.48;29.79;101057.56;5000805;28;20136;-65
2022/06/06 11:27:35;;;;;;;2.85;0.80;;;;;;;26.44;30.03;101061.78;5003274;28;21858;-65
2022/06/06 11:30:28;;;;;;;1.45;0.80;;;;;;;26.40;30.26;101054.91;4999003;28;20045;-66
2022/06/06 11:33:22;;;;;;;1.63;0.70;;;;;;;26.37;30.37;101049.72;4979763;28;20096;-64
2022/06/06 11:35:54;;;;;;;1.58;0.90;;;;;;;26.37;30.51;101074.78;4997952;28;20481;-64
2022/06/06 11:38:50;;;;;;;;;;;;;;;26.10;31.29;101074.53;5002391;28;20052;-66
2022/06/06 11:41:33;;;;;;;0.80;0.65;;;;;;;26.35;30.30;101090.84;5003975;28;20008;-66
2022/06/06 11:44:48;;;;;;;1.20;0.73;;;;;;;26.32;30.81;101086.53;4993318;28;20089;-68
2022/06/06 11:47:38;;;;;;;2.30;0.60;;;;;;;26.30;30.64;101082.22;5003082;28;20042;-65
2022/06/06 11:50:17;;;;;;;2.88;0.98;;;;;;;26.24;31.41;101063.50;5011781;28;20096;-65
2022/06/06 11:53:06;;;;;;;2.55;0.73;;;;;;;26.21;31.02;101070.31;4992656;28;20133;-68
2022/06/06 11:55:35;;;;;;;2.55;0.90;;;;;;;26.21;31.30;101072.25;4995963;28;20069;-65
2022/06/06 11:58:29;;;;;;;1.60;0.70;;;;;;;26.19;30.79;101069.66;5001236;28;20109;-68
2022/06/06 12:01:15;;;;;;;1.40;0.60;;;;;;;26.14;31.62;101069.41;5000128;28;20077;-65
2022/06/06 12:03:54;;;;;;;1.58;0.70;;;;;;;26.15;30.98;101062.78;4999628;28;20045;-66
2022/06/06 12:06:29;;;;;;;2.05;0.82;;;;;;;26.12;31.41;101057.59;4997001;28;20038;-66
2022/06/06 12:09:29;;;;;;;1.20;0.68;;;;;;;26.15;31.10;101058.09;5005087;28;20042;-65
2022/06/06 12:12:03;;;;;;;1.42;0.80;;;;;;;26.17;31.29;101048.69;5000795;28;20495;-66
2022/06/06 12:14:39;;;;;;;1.67;0.75;;;;;;;26.20;31.30;101046.34;5005396;28;20088;-65
2022/06/06 12:17:24;;;;;;;2.92;0.90;;;;;;;26.23;31.47;101048.72;4999409;28;20080;-65
2022/06/06 12:20:05;;;;;;;1.23;0.73;;;;;;;26.25;31.68;101042.97;4997327;28;20392;-65
2022/06/06 12:22:48;;;;;;;1.53;0.77;;;;;;;26.31;31.32;101031.91;4999602;28;20128;-64
2022/06/06 12:25:19;;;;;;;1.83;0.93;;;;;;;26.39;31.01;101037.34;5001502;28;20376;-65
2022/06/06 12:28:00;;;;;;;3.38;0.90;;;;;;;26.44;30.88;101036.72;4999497;28;20041;-65
2022/06/06 12:31:02;;;;;;;0.97;0.70;;;;;;;26.47;30.64;101033.53;5006016;28;20129;-65
2022/06/06 12:33:38;;;;;;;2.33;0.80;;;;;;;26.51;30.60;101041.31;4969531;28;20301;-65
2022/06/06 12:36:46;;;;;;;1.80;1.23;;;;;;;26.55;30.04;101030.63;5001768;28;20103;-66
2022/06/06 12:39:39;;;;;;;2.15;0.60;;;;;;;26.55;30.03;101040.88;4979236;28;20077;-67
2022/06/06 12:42:21;;;;;;;2.20;0.98;;;;;;;26.60;29.39;101027.25;5001071;28;20579;-64
2022/06/06 12:45:06;;;;;;;1.83;0.90;;;;;;;26.57;29.59;101025.72;5000639;28;20495;-64
2022/06/06 12:47:42;;;;;;;2.63;0.90;;;;;;;26.62;29.67;101031.53;5011428;28;20077;-63
2022/06/06 12:50:41;;;;;;;2.50;0.80;;;;;;;26.60;29.31;101013.31;5015808;28;20119;-63
2022/06/06 12:53:35;;;;;;;2.75;0.90;;;;;;;26.61;29.23;101028.94;4997896;28;20149;-63
2022/06/06 12:56:45;;;;;;;2.10;0.90;;;;;;;26.58;29.18;101016.28;4995559;28;20078;-64
2022/06/06 12:59:25;;;;;;;2.72;1.00;;;;;;;26.62;29.40;101019.50;4992520;28;20109;-63
2022/06/06 13:02:29;;;;;;;2.95;1.00;;;;;;;26.60;29.37;101008.59;4992978;28;20426;-62
2022/06/06 13:05:14;;;;;;;2.88;0.85;;;;;;;26.63;29.22;101010.97;4991545;28;20692;-63
2022/06/06 13:07:59;;;;;;;1.38;0.77;;;;;;;26.65;28.67;101003.28;4994598;28;20129;-63